Ephrata, PA (17522)

9:13 AM EST on February 23, 2017 (GMT -0500)
Martin Ave | | Change Station
Active Advisory: Special Statement

Elev 434 ft 40.19 °N, 76.19 °W | Updated 30 seconds ago

Fog
Fog
48.9 °F
Feels Like 49 °F
N
0.0
Wind Variable Wind from SSW
Gusts 1.0 mph

Today
High -- | Low -- °F
--% Chance of Precip.
Yesterday
High -- | Low -- °F
Precip. -- in
Pressure 29.91 in
Visibility 0.2 miles
Clouds
Windchill 49 °F
Dew Point 49 °F
Humidity 99%
Rainfall 0.00 in
Snow Depth Not available.
6:46 AM 5:49 PM
Waning Crescent, 10% visible
METAR KLNS 231353Z 00000KT 1/4SM FG VV003 09/09 A2991 RMK AO2 SLP128 T00940094
Pressure 29.91 in
Visibility 0.2 miles
Clouds
Windchill 49 °F
Dew Point 49 °F
Humidity 99%
Rainfall 0.00 in
Snow Depth Not available.
6:46 AM 5:49 PM
Waning Crescent, 10% visible
METAR KLNS 231353Z 00000KT 1/4SM FG VV003 09/09 A2991 RMK AO2 SLP128 T00940094

Get Your Daily Forecast Email!

Thanks for signing up!

Be on the lookout for a verification email in your inbox.

You'll start receiving the daily forecast at 8 AM.

×

10-Day Weather Forecast

Almanac

Astronomy

Feb. 23, 2017 Rise Set
Actual Time
Civil Twilight
Nautical Twilight
Astronomical Twilight
Moon
Length of Visible Light
Length of Day
Tomorrow will be .
, % of the Moon is Illuminated

Today's Extremes

State Highs State Lows

Community

WunderPhotos

Upload Photos

1,962,540 photos uploaded!

WunderBlog® & News

Nearby

Air Quality

  Air Quality AQ Index Pollutant
Not available.

Snow Depth

Station Depth Elevation

Earthquake Activity

City Distance Mag. Time & Date
Minimum magnitude displayed is 2.5.

Coastal Water Temperatures

Place Temperature

Stations

Nearby Weather Stations

Station Location Temp. Windchill Dew Point Humidity Wind Precip. Elev Updated Type
                   

Watches & Warnings

Special Statement
Issued: 8:59 AM EST Feb. 23, 2017 – National Weather Service

... Dense fog possible through late morning...

Widespread fog around the area this morning will only slowly burn
away. There are patches of dense fog, as well. Expect the fog to
be gone later this morning. Until then, please use extra caution
when traveling.